sensor_id;sensor_type;location;lat;lon;timestamp;pressure;altitude;pressure_sealevel;temperature
31921;BMP280;66485;52.128;4.436;2023-07-02T00:00:55;100840.44;;;24.77
31921;BMP280;66485;52.128;4.436;2023-07-02T00:03:20;100849.41;;;24.77
31921;BMP280;66485;52.128;4.436;2023-07-02T00:05:47;100849.41;;;24.77
31921;BMP280;66485;52.128;4.436;2023-07-02T00:08:15;100844.09;;;24.74
31921;BMP280;66485;52.128;4.436;2023-07-02T00:10:40;100833.63;;;24.72
31921;BMP280;66485;52.128;4.436;2023-07-02T00:13:06;100838.19;;;24.75
31921;BMP280;66485;52.128;4.436;2023-07-02T00:15:31;100832.69;;;24.75
31921;BMP280;66485;52.128;4.436;2023-07-02T00:17:57;100843.66;;;24.75
31921;BMP280;66485;52.128;4.436;2023-07-02T00:20:22;100843.66;;;24.75
31921;BMP280;66485;52.128;4.436;2023-07-02T00:22:48;100846.84;;;24.74
31921;BMP280;66485;52.128;4.436;2023-07-02T00:25:14;100846.84;;;24.74
31921;BMP280;66485;52.128;4.436;2023-07-02T00:27:40;100844.59;;;24.72
31921;BMP280;66485;52.128;4.436;2023-07-02T00:30:07;100852.81;;;24.72
31921;BMP280;66485;52.128;4.436;2023-07-02T00:32:32;100847.00;;;24.70
31921;BMP280;66485;52.128;4.436;2023-07-02T00:34:58;100847.00;;;24.70
31921;BMP280;66485;52.128;4.436;2023-07-02T00:37:24;100849.47;;;24.68
31921;BMP280;66485;52.128;4.436;2023-07-02T00:39:49;100852.97;;;24.69
31921;BMP280;66485;52.128;4.436;2023-07-02T00:42:15;100847.16;;;24.67
31921;BMP280;66485;52.128;4.436;2023-07-02T00:44:41;100850.25;;;24.69
31921;BMP280;66485;52.128;4.436;2023-07-02T00:47:11;100854.94;;;24.68
31921;BMP280;66485;52.128;4.436;2023-07-02T00:49:36;100854.94;;;24.68
31921;BMP280;66485;52.128;4.436;2023-07-02T00:52:02;100855.84;;;24.65
31921;BMP280;66485;52.128;4.436;2023-07-02T00:54:28;100864.84;;;24.66
31921;BMP280;66485;52.128;4.436;2023-07-02T00:56:54;100864.84;;;24.66
31921;BMP280;66485;52.128;4.436;2023-07-02T00:59:19;100861.34;;;24.65
31921;BMP280;66485;52.128;4.436;2023-07-02T01:01:45;100859.34;;;24.66
31921;BMP280;66485;52.128;4.436;2023-07-02T01:04:17;100852.34;;;24.65
31921;BMP280;66485;52.128;4.436;2023-07-02T01:06:43;100852.34;;;24.65
31921;BMP280;66485;52.128;4.436;2023-07-02T01:09:09;100868.03;;;24.64
31921;BMP280;66485;52.128;4.436;2023-07-02T01:11:40;100856.78;;;24.62
31921;BMP280;66485;52.128;4.436;2023-07-02T01:16:33;100862.25;;;24.62
31921;BMP280;66485;52.128;4.436;2023-07-02T01:19:02;100862.25;;;24.62
31921;BMP280;66485;52.128;4.436;2023-07-02T01:21:30;100861.50;;;24.61
31921;BMP280;66485;52.128;4.436;2023-07-02T01:23:57;100861.50;;;24.61
31921;BMP280;66485;52.128;4.436;2023-07-02T01:26:23;100853.72;;;24.60
31921;BMP280;66485;52.128;4.436;2023-07-02T01:28:49;100856.47;;;24.60
31921;BMP280;66485;52.128;4.436;2023-07-02T01:31:15;100856.47;;;24.60
31921;BMP280;66485;52.128;4.436;2023-07-02T01:33:41;100863.16;;;24.59
31921;BMP280;66485;52.128;4.436;2023-07-02T01:36:08;100863.16;;;24.59
31921;BMP280;66485;52.128;4.436;2023-07-02T01:38:34;100856.19;;;24.58
31921;BMP280;66485;52.128;4.436;2023-07-02T01:40:59;100854.66;;;24.57
31921;BMP280;66485;52.128;4.436;2023-07-02T01:43:25;100854.66;;;24.57
31921;BMP280;66485;52.128;4.436;2023-07-02T01:45:50;100855.44;;;24.57
31921;BMP280;66485;52.128;4.436;2023-07-02T01:48:16;100857.81;;;24.55
31921;BMP280;66485;52.128;4.436;2023-07-02T01:50:41;100857.81;;;24.55
31921;BMP280;66485;52.128;4.436;2023-07-02T01:53:06;100854.34;;;24.55
31921;BMP280;66485;52.128;4.436;2023-07-02T01:55:32;100860.56;;;24.55
31921;BMP280;66485;52.128;4.436;2023-07-02T01:57:57;100857.53;;;24.53
31921;BMP280;66485;52.128;4.436;2023-07-02T02:00:22;100858.47;;;24.50
31921;BMP280;66485;52.128;4.436;2023-07-02T02:02:49;100858.00;;;24.52
31921;BMP280;66485;52.128;4.436;2023-07-02T02:05:15;100858.00;;;24.52
31921;BMP280;66485;52.128;4.436;2023-07-02T02:07:41;100853.75;;;24.51
31921;BMP280;66485;52.128;4.436;2023-07-02T02:10:06;100858.00;;;24.52
31921;BMP280;66485;52.128;4.436;2023-07-02T02:12:34;100854.97;;;24.50
31921;BMP280;66485;52.128;4.436;2023-07-02T02:14:59;100859.69;;;24.49
31921;BMP280;66485;52.128;4.436;2023-07-02T02:17:24;100862.91;;;24.48
31921;BMP280;66485;52.128;4.436;2023-07-02T02:19:50;100865.63;;;24.48
31921;BMP280;66485;52.128;4.436;2023-07-02T02:22:18;100861.38;;;24.47
31921;BMP280;66485;52.128;4.436;2023-07-02T02:24:44;100861.38;;;24.47
31921;BMP280;66485;52.128;4.436;2023-07-02T02:27:09;100877.47;;;24.45
31921;BMP280;66485;52.128;4.436;2023-07-02T02:29:35;100879.00;;;24.46
31921;BMP280;66485;52.128;4.436;2023-07-02T02:32:00;100887.69;;;24.44
31921;BMP280;66485;52.128;4.436;2023-07-02T02:34:25;100889.66;;;24.44
31921;BMP280;66485;52.128;4.436;2023-07-02T02:36:51;100894.38;;;24.43
31921;BMP280;66485;52.128;4.436;2023-07-02T02:39:16;100891.63;;;24.43
31921;BMP280;66485;52.128;4.436;2023-07-02T02:41:41;100891.63;;;24.43
31921;BMP280;66485;52.128;4.436;2023-07-02T02:44:06;100904.72;;;24.39
31921;BMP280;66485;52.128;4.436;2023-07-02T02:46:32;100895.28;;;24.40
31921;BMP280;66485;52.128;4.436;2023-07-02T02:48:58;100899.25;;;24.39
31921;BMP280;66485;52.128;4.436;2023-07-02T02:51:23;100897.72;;;24.38
31921;BMP280;66485;52.128;4.436;2023-07-02T02:53:48;100901.97;;;24.39
31921;BMP280;66485;52.128;4.436;2023-07-02T02:56:14;100906.69;;;24.39
31921;BMP280;66485;52.128;4.436;2023-07-02T02:58:40;100907.19;;;24.37
31921;BMP280;66485;52.128;4.436;2023-07-02T03:01:05;100894.69;;;24.36
31921;BMP280;66485;52.128;4.436;2023-07-02T03:03:36;100906.41;;;24.37
31921;BMP280;66485;52.128;4.436;2023-07-02T03:06:04;100900.16;;;24.36
31921;BMP280;66485;52.128;4.436;2023-07-02T03:08:30;100898.66;;;24.35
31921;BMP280;66485;52.128;4.436;2023-07-02T03:10:55;100908.81;;;24.35
31921;BMP280;66485;52.128;4.436;2023-07-02T03:13:20;100901.81;;;24.34
31921;BMP280;66485;52.128;4.436;2023-07-02T03:15:46;100901.81;;;24.34
31921;BMP280;66485;52.128;4.436;2023-07-02T03:18:11;100911.25;;;24.33
31921;BMP280;66485;52.128;4.436;2023-07-02T03:20:37;100907.75;;;24.32
31921;BMP280;66485;52.128;4.436;2023-07-02T03:23:02;100907.75;;;24.32
31921;BMP280;66485;52.128;4.436;2023-07-02T03:25:27;100901.50;;;24.32
31921;BMP280;66485;52.128;4.436;2023-07-02T03:27:53;100897.28;;;24.31
31921;BMP280;66485;52.128;4.436;2023-07-02T03:30:18;100903.19;;;24.29
31921;BMP280;66485;52.128;4.436;2023-07-02T03:32:43;100903.19;;;24.29
31921;BMP280;66485;52.128;4.436;2023-07-02T03:35:09;100903.66;;;24.28
31921;BMP280;66485;52.128;4.436;2023-07-02T03:37:34;100909.88;;;24.28
31921;BMP280;66485;52.128;4.436;2023-07-02T03:40:00;100904.13;;;24.26
31921;BMP280;66485;52.128;4.436;2023-07-02T03:42:25;100904.13;;;24.26
31921;BMP280;66485;52.128;4.436;2023-07-02T03:44:50;100923.56;;;24.28
31921;BMP280;66485;52.128;4.436;2023-07-02T03:47:16;100931.03;;;24.28
31921;BMP280;66485;52.128;4.436;2023-07-02T03:49:44;100918.56;;;24.27
31921;BMP280;66485;52.128;4.436;2023-07-02T03:52:09;100928.00;;;24.26
31921;BMP280;66485;52.128;4.436;2023-07-02T03:54:35;100921.00;;;24.25
31921;BMP280;66485;52.128;4.436;2023-07-02T03:57:00;100922.53;;;24.26
31921;BMP280;66485;52.128;4.436;2023-07-02T03:59:25;100926.78;;;24.27
31921;BMP280;66485;52.128;4.436;2023-07-02T04:01:51;100935.00;;;24.27
31921;BMP280;66485;52.128;4.436;2023-07-02T04:04:16;100935.00;;;24.27
31921;BMP280;66485;52.128;4.436;2023-07-02T04:06:41;100928.88;;;24.23
31921;BMP280;66485;52.128;4.436;2023-07-02T04:09:07;100937.88;;;24.23
31921;BMP280;66485;52.128;4.436;2023-07-02T04:11:32;100944.06;;;24.24
31921;BMP280;66485;52.128;4.436;2023-07-02T04:13:57;100944.06;;;24.24
31921;BMP280;66485;52.128;4.436;2023-07-02T04:16:23;100943.03;;;24.21
31921;BMP280;66485;52.128;4.436;2023-07-02T04:18:48;100943.03;;;24.21
31921;BMP280;66485;52.128;4.436;2023-07-02T04:21:13;100943.78;;;24.22
31921;BMP280;66485;52.128;4.436;2023-07-02T04:23:39;100950.03;;;24.22
31921;BMP280;66485;52.128;4.436;2023-07-02T04:26:04;100950.03;;;24.22
31921;BMP280;66485;52.128;4.436;2023-07-02T04:28:29;100952.00;;;24.22
31921;BMP280;66485;52.128;4.436;2023-07-02T04:30:55;100960.22;;;24.22
31921;BMP280;66485;52.128;4.436;2023-07-02T04:33:20;100958.69;;;24.20
31921;BMP280;66485;52.128;4.436;2023-07-02T04:35:46;100958.69;;;24.20
31921;BMP280;66485;52.128;4.436;2023-07-02T04:38:11;100956.72;;;24.21
31921;BMP280;66485;52.128;4.436;2023-07-02T04:40:37;100953.97;;;24.21
31921;BMP280;66485;52.128;4.436;2023-07-02T04:43:02;100953.97;;;24.21
31921;BMP280;66485;52.128;4.436;2023-07-02T04:45:29;100958.41;;;24.18
31921;BMP280;66485;52.128;4.436;2023-07-02T04:47:57;100962.06;;;24.15
31921;BMP280;66485;52.128;4.436;2023-07-02T04:50:22;100962.06;;;24.15
31921;BMP280;66485;52.128;4.436;2023-07-02T04:52:48;100972.06;;;24.18
31921;BMP280;66485;52.128;4.436;2023-07-02T04:55:13;100969.34;;;24.18
31921;BMP280;66485;52.128;4.436;2023-07-02T04:57:39;100969.34;;;24.18
31921;BMP280;66485;52.128;4.436;2023-07-02T05:00:04;100959.31;;;24.15
31921;BMP280;66485;52.128;4.436;2023-07-02T05:02:31;100961.56;;;24.17
31921;BMP280;66485;52.128;4.436;2023-07-02T05:04:56;100973.28;;;24.17
31921;BMP280;66485;52.128;4.436;2023-07-02T05:07:22;100982.72;;;24.16
31921;BMP280;66485;52.128;4.436;2023-07-02T05:09:47;100977.22;;;24.16
31921;BMP280;66485;52.128;4.436;2023-07-02T05:12:14;100979.97;;;24.16
31921;BMP280;66485;52.128;4.436;2023-07-02T05:14:40;100977.22;;;24.16
31921;BMP280;66485;52.128;4.436;2023-07-02T05:17:05;100982.41;;;24.14
31921;BMP280;66485;52.128;4.436;2023-07-02T05:19:31;100987.56;;;24.12
31921;BMP280;66485;52.128;4.436;2023-07-02T05:21:56;100987.56;;;24.12
31921;BMP280;66485;52.128;4.436;2023-07-02T05:24:21;100998.84;;;24.14
31921;BMP280;66485;52.128;4.436;2023-07-02T05:26:47;100998.84;;;24.14
31921;BMP280;66485;52.128;4.436;2023-07-02T05:29:12;101002.00;;;24.13
31921;BMP280;66485;52.128;4.436;2023-07-02T05:31:39;100997.28;;;24.13
31921;BMP280;66485;52.128;4.436;2023-07-02T05:34:04;100998.06;;;24.14
31921;BMP280;66485;52.128;4.436;2023-07-02T05:36:30;101008.38;;;24.10
31921;BMP280;66485;52.128;4.436;2023-07-02T05:38:55;101010.97;;;24.13
31921;BMP280;66485;52.128;4.436;2023-07-02T05:41:21;101010.97;;;24.13
31921;BMP280;66485;52.128;4.436;2023-07-02T05:43:46;101010.97;;;24.13
31921;BMP280;66485;52.128;4.436;2023-07-02T05:46:12;101010.97;;;24.13
31921;BMP280;66485;52.128;4.436;2023-07-02T05:48:39;101002.91;;;24.10
31921;BMP280;66485;52.128;4.436;2023-07-02T05:51:05;101017.34;;;24.10
31921;BMP280;66485;52.128;4.436;2023-07-02T05:53:30;101017.34;;;24.10
31921;BMP280;66485;52.128;4.436;2023-07-02T05:55:55;101017.66;;;24.12
31921;BMP280;66485;52.128;4.436;2023-07-02T05:58:21;101023.16;;;24.12
31921;BMP280;66485;52.128;4.436;2023-07-02T06:00:47;101020.41;;;24.12
31921;BMP280;66485;52.128;4.436;2023-07-02T06:03:16;101032.56;;;24.11
31921;BMP280;66485;52.128;4.436;2023-07-02T06:05:48;101031.03;;;24.10
31921;BMP280;66485;52.128;4.436;2023-07-02T06:08:15;101034.81;;;24.13
31921;BMP280;66485;52.128;4.436;2023-07-02T06:10:41;101039.25;;;24.10
31921;BMP280;66485;52.128;4.436;2023-07-02T06:13:07;101049.44;;;24.10
31921;BMP280;66485;52.128;4.436;2023-07-02T06:15:33;101049.44;;;24.10
31921;BMP280;66485;52.128;4.436;2023-07-02T06:17:58;101027.09;;;24.11
31921;BMP280;66485;52.128;4.436;2023-07-02T06:20:23;101027.09;;;24.11
31921;BMP280;66485;52.128;4.436;2023-07-02T06:22:49;101045.94;;;24.09
31921;BMP280;66485;52.128;4.436;2023-07-02T06:25:14;101041.97;;;24.10
31921;BMP280;66485;52.128;4.436;2023-07-02T06:27:39;101041.97;;;24.10
31921;BMP280;66485;52.128;4.436;2023-07-02T06:30:05;101045.94;;;24.09
31921;BMP280;66485;52.128;4.436;2023-07-02T06:32:31;101045.94;;;24.09
31921;BMP280;66485;52.128;4.436;2023-07-02T06:34:57;101039.88;;;24.05
31921;BMP280;66485;52.128;4.436;2023-07-02T06:37:23;101048.66;;;24.09
31921;BMP280;66485;52.128;4.436;2023-07-02T06:39:48;101056.88;;;24.09
31921;BMP280;66485;52.128;4.436;2023-07-02T06:42:14;101056.88;;;24.09
31921;BMP280;66485;52.128;4.436;2023-07-02T06:44:40;101058.88;;;24.09
31921;BMP280;66485;52.128;4.436;2023-07-02T06:47:06;101066.75;;;24.07
31921;BMP280;66485;52.128;4.436;2023-07-02T06:49:31;101066.75;;;24.07
31921;BMP280;66485;52.128;4.436;2023-07-02T06:51:57;101072.84;;;24.11
31921;BMP280;66485;52.128;4.436;2023-07-02T06:54:22;101067.81;;;24.09
31921;BMP280;66485;52.128;4.436;2023-07-02T06:56:47;101067.81;;;24.09
31921;BMP280;66485;52.128;4.436;2023-07-02T06:59:18;101066.47;;;24.05
31921;BMP280;66485;52.128;4.436;2023-07-02T07:01:44;101066.75;;;24.07
31921;BMP280;66485;52.128;4.436;2023-07-02T07:04:09;101071.47;;;24.06
31921;BMP280;66485;52.128;4.436;2023-07-02T07:06:34;101086.53;;;24.11
31921;BMP280;66485;52.128;4.436;2023-07-02T07:09:00;101084.72;;;24.08
31921;BMP280;66485;52.128;4.436;2023-07-02T07:11:25;101090.47;;;24.10
31921;BMP280;66485;52.128;4.436;2023-07-02T07:13:50;101090.47;;;24.10
31921;BMP280;66485;52.128;4.436;2023-07-02T07:16:15;101104.63;;;24.08
31921;BMP280;66485;52.128;4.436;2023-07-02T07:18:43;101094.44;;;24.09
31921;BMP280;66485;52.128;4.436;2023-07-02T07:21:09;101102.34;;;24.07
31921;BMP280;66485;52.128;4.436;2023-07-02T07:23:34;101102.03;;;24.05
31921;BMP280;66485;52.128;4.436;2023-07-02T07:26:00;101099.91;;;24.09
31921;BMP280;66485;52.128;4.436;2023-07-02T07:28:25;101101.41;;;24.10
31921;BMP280;66485;52.128;4.436;2023-07-02T07:30:50;101106.13;;;24.09
31921;BMP280;66485;52.128;4.436;2023-07-02T07:33:16;101106.13;;;24.09
31921;BMP280;66485;52.128;4.436;2023-07-02T07:35:42;101113.91;;;24.11
31921;BMP280;66485;52.128;4.436;2023-07-02T07:38:08;101109.34;;;24.08
31921;BMP280;66485;52.128;4.436;2023-07-02T07:40:33;101118.59;;;24.10
31921;BMP280;66485;52.128;4.436;2023-07-02T07:42:59;101118.59;;;24.10
31921;BMP280;66485;52.128;4.436;2023-07-02T07:45:24;101117.84;;;24.10
31921;BMP280;66485;52.128;4.436;2023-07-02T07:47:49;101117.84;;;24.10
31921;BMP280;66485;52.128;4.436;2023-07-02T07:50:15;101118.59;;;24.10
31921;BMP280;66485;52.128;4.436;2023-07-02T07:52:42;101118.59;;;24.10
31921;BMP280;66485;52.128;4.436;2023-07-02T07:55:08;101106.28;;;24.06
31921;BMP280;66485;52.128;4.436;2023-07-02T07:57:34;101110.53;;;24.07
31921;BMP280;66485;52.128;4.436;2023-07-02T08:00:00;101106.13;;;24.09
31921;BMP280;66485;52.128;4.436;2023-07-02T08:02:26;101118.59;;;24.10
31921;BMP280;66485;52.128;4.436;2023-07-02T08:04:51;101138.09;;;24.12
31921;BMP280;66485;52.128;4.436;2023-07-02T08:07:16;101128.34;;;24.11
31921;BMP280;66485;52.128;4.436;2023-07-02T08:09:42;101144.00;;;24.11
31921;BMP280;66485;52.128;4.436;2023-07-02T08:12:07;101128.34;;;24.11
31921;BMP280;66485;52.128;4.436;2023-07-02T08:14:34;101140.50;;;24.10
31921;BMP280;66485;52.128;4.436;2023-07-02T08:17:02;101140.50;;;24.10
31921;BMP280;66485;52.128;4.436;2023-07-02T08:19:27;101131.66;;;24.06
31921;BMP280;66485;52.128;4.436;2023-07-02T08:21:53;101137.31;;;24.12
31921;BMP280;66485;52.128;4.436;2023-07-02T08:24:18;101137.31;;;24.12
31921;BMP280;66485;52.128;4.436;2023-07-02T08:26:44;101136.84;;;24.13
31921;BMP280;66485;52.128;4.436;2023-07-02T08:29:10;101133.72;;;24.15
31921;BMP280;66485;52.128;4.436;2023-07-02T08:31:35;101133.72;;;24.15
31921;BMP280;66485;52.128;4.436;2023-07-02T08:34:01;101152.09;;;24.14
31921;BMP280;66485;52.128;4.436;2023-07-02T08:36:26;101152.09;;;24.14
31921;BMP280;66485;52.128;4.436;2023-07-02T08:38:52;101154.84;;;24.14
31921;BMP280;66485;52.128;4.436;2023-07-02T08:41:20;101156.00;;;24.13
31921;BMP280;66485;52.128;4.436;2023-07-02T08:43:45;101157.56;;;24.14
31921;BMP280;66485;52.128;4.436;2023-07-02T08:46:15;101172.44;;;24.13
31921;BMP280;66485;52.128;4.436;2023-07-02T08:48:40;101172.44;;;24.13
31921;BMP280;66485;52.128;4.436;2023-07-02T08:51:05;101167.31;;;24.15
31921;BMP280;66485;52.128;4.436;2023-07-02T08:53:31;101165.78;;;24.14
31921;BMP280;66485;52.128;4.436;2023-07-02T08:56:02;101157.56;;;24.14
31921;BMP280;66485;52.128;4.436;2023-07-02T08:58:28;101169.28;;;24.15
31921;BMP280;66485;52.128;4.436;2023-07-02T09:01:12;101169.28;;;24.15
31921;BMP280;66485;52.128;4.436;2023-07-02T09:03:39;101166.97;;;24.13
31921;BMP280;66485;52.128;4.436;2023-07-02T09:06:06;101168.19;;;24.12
31921;BMP280;66485;52.128;4.436;2023-07-02T09:08:32;101165.78;;;24.14
31921;BMP280;66485;52.128;4.436;2023-07-02T09:11:09;101165.78;;;24.14
31921;BMP280;66485;52.128;4.436;2023-07-02T09:13:51;101164.22;;;24.13
31921;BMP280;66485;52.128;4.436;2023-07-02T09:19:01;101176.59;;;24.18
31921;BMP280;66485;52.128;4.436;2023-07-02T09:21:47;101170.97;;;24.22
31921;BMP280;66485;52.128;4.436;2023-07-02T09:26:46;101175.22;;;24.23
31921;BMP280;66485;52.128;4.436;2023-07-02T09:29:12;101177.97;;;24.23
31921;BMP280;66485;52.128;4.436;2023-07-02T09:31:45;101186.19;;;24.23
31921;BMP280;66485;52.128;4.436;2023-07-02T09:34:11;101184.66;;;24.22
31921;BMP280;66485;52.128;4.436;2023-07-02T09:36:37;101181.47;;;24.23
31921;BMP280;66485;52.128;4.436;2023-07-02T09:39:11;101181.47;;;24.23
31921;BMP280;66485;52.128;4.436;2023-07-02T09:41:38;101182.97;;;24.24
31921;BMP280;66485;52.128;4.436;2023-07-02T09:44:04;101183.78;;;24.25
31921;BMP280;66485;52.128;4.436;2023-07-02T09:46:31;101177.09;;;24.26
31921;BMP280;66485;52.128;4.436;2023-07-02T09:48:58;101180.25;;;24.24
31921;BMP280;66485;52.128;4.436;2023-07-02T09:51:24;101180.25;;;24.24
31921;BMP280;66485;52.128;4.436;2023-07-02T09:53:51;101175.41;;;24.28
31921;BMP280;66485;52.128;4.436;2023-07-02T09:56:17;101178.91;;;24.29
31921;BMP280;66485;52.128;4.436;2023-07-02T09:58:44;101180.44;;;24.30
31921;BMP280;66485;52.128;4.436;2023-07-02T10:01:10;101180.44;;;24.30
31921;BMP280;66485;52.128;4.436;2023-07-02T10:03:35;101181.97;;;24.31
31921;BMP280;66485;52.128;4.436;2023-07-02T10:06:04;101181.97;;;24.31
31921;BMP280;66485;52.128;4.436;2023-07-02T10:08:30;101189.72;;;24.32
31921;BMP280;66485;52.128;4.436;2023-07-02T10:11:09;101189.72;;;24.32
31921;BMP280;66485;52.128;4.436;2023-07-02T10:13:35;101192.03;;;24.34
31921;BMP280;66485;52.128;4.436;2023-07-02T10:16:04;101196.63;;;24.37
31921;BMP280;66485;52.128;4.436;2023-07-02T10:18:30;101196.63;;;24.37
31921;BMP280;66485;52.128;4.436;2023-07-02T10:20:55;101192.03;;;24.34
31921;BMP280;66485;52.128;4.436;2023-07-02T10:23:32;101188.03;;;24.35
31921;BMP280;66485;52.128;4.436;2023-07-02T10:26:10;101185.66;;;24.37
31921;BMP280;66485;52.128;4.436;2023-07-02T10:28:35;101199.06;;;24.44
31921;BMP280;66485;52.128;4.436;2023-07-02T10:31:00;101191.59;;;24.44
31921;BMP280;66485;52.128;4.436;2023-07-02T10:33:26;101191.59;;;24.44
31921;BMP280;66485;52.128;4.436;2023-07-02T10:35:51;101201.03;;;24.43
31921;BMP280;66485;52.128;4.436;2023-07-02T10:38:20;101194.34;;;24.44
31921;BMP280;66485;52.128;4.436;2023-07-02T10:40:45;101190.72;;;24.47
31921;BMP280;66485;52.128;4.436;2023-07-02T10:43:11;101208.06;;;24.53
31921;BMP280;66485;52.128;4.436;2023-07-02T10:45:36;101208.06;;;24.53
31921;BMP280;66485;52.128;4.436;2023-07-02T10:48:03;101188.13;;;24.53
31921;BMP280;66485;52.128;4.436;2023-07-02T10:50:30;101211.75;;;24.59
31921;BMP280;66485;52.128;4.436;2023-07-02T10:52:57;101211.75;;;24.59
31921;BMP280;66485;52.128;4.436;2023-07-02T10:55:24;101215.88;;;24.64
31921;BMP280;66485;52.128;4.436;2023-07-02T10:57:51;101215.88;;;24.64
31921;BMP280;66485;52.128;4.436;2023-07-02T11:00:27;101221.22;;;24.68
31921;BMP280;66485;52.128;4.436;2023-07-02T11:02:52;101221.22;;;24.68
31921;BMP280;66485;52.128;4.436;2023-07-02T11:05:17;101211.81;;;24.69
31921;BMP280;66485;52.128;4.436;2023-07-02T11:07:43;101225.81;;;24.80
31921;BMP280;66485;52.128;4.436;2023-07-02T11:10:10;101221.72;;;24.84
31921;BMP280;66485;52.128;4.436;2023-07-02T11:12:36;101221.72;;;24.84
31921;BMP280;66485;52.128;4.436;2023-07-02T11:15:16;101214.56;;;24.87
31921;BMP280;66485;52.128;4.436;2023-07-02T11:17:44;101214.56;;;24.87
31921;BMP280;66485;52.128;4.436;2023-07-02T11:20:11;101226.16;;;24.91
31921;BMP280;66485;52.128;4.436;2023-07-02T11:22:38;101218.25;;;24.93
31921;BMP280;66485;52.128;4.436;2023-07-02T11:25:17;101224.63;;;24.99
31921;BMP280;66485;52.128;4.436;2023-07-02T11:27:43;101231.97;;;25.02
31921;BMP280;66485;52.128;4.436;2023-07-02T11:30:08;101221.63;;;25.06
31921;BMP280;66485;52.128;4.436;2023-07-02T11:32:48;101235.50;;;25.12
31921;BMP280;66485;52.128;4.436;2023-07-02T11:35:16;101236.69;;;25.11
31921;BMP280;66485;52.128;4.436;2023-07-02T11:37:42;101240.97;;;25.12
31921;BMP280;66485;52.128;4.436;2023-07-02T11:40:11;101240.97;;;25.12
31921;BMP280;66485;52.128;4.436;2023-07-02T11:42:37;101229.25;;;25.11
31921;BMP280;66485;52.128;4.436;2023-07-02T11:45:03;101229.25;;;25.11
31921;BMP280;66485;52.128;4.436;2023-07-02T11:47:29;101232.16;;;25.26
31921;BMP280;66485;52.128;4.436;2023-07-02T11:49:54;101232.16;;;25.26
31921;BMP280;66485;52.128;4.436;2023-07-02T11:52:24;101225.91;;;25.25
31921;BMP280;66485;52.128;4.436;2023-07-02T11:54:50;101225.44;;;25.36
31921;BMP280;66485;52.128;4.436;2023-07-02T11:57:15;101225.44;;;25.36
31921;BMP280;66485;52.128;4.436;2023-07-02T11:59:41;101242.38;;;25.43
31921;BMP280;66485;52.128;4.436;2023-07-02T12:02:07;101227.59;;;25.50
31921;BMP280;66485;52.128;4.436;2023-07-02T12:04:32;101225.13;;;25.52
31921;BMP280;66485;52.128;4.436;2023-07-02T12:06:57;101225.13;;;25.52
31921;BMP280;66485;52.128;4.436;2023-07-02T12:09:23;101237.78;;;25.59
31921;BMP280;66485;52.128;4.436;2023-07-02T12:11:48;101237.78;;;25.59
31921;BMP280;66485;52.128;4.436;2023-07-02T12:14:13;101261.41;;;25.65
31921;BMP280;66485;52.128;4.436;2023-07-02T12:16:39;101250.00;;;25.67
31921;BMP280;66485;52.128;4.436;2023-07-02T12:19:04;101250.00;;;25.67
31921;BMP280;66485;52.128;4.436;2023-07-02T12:21:30;101256.84;;;25.71
31921;BMP280;66485;52.128;4.436;2023-07-02T12:23:55;101256.84;;;25.71
31921;BMP280;66485;52.128;4.436;2023-07-02T12:26:21;101266.28;;;25.79
31921;BMP280;66485;52.128;4.436;2023-07-02T12:28:46;101274.34;;;25.83
31921;BMP280;66485;52.128;4.436;2023-07-02T12:31:11;101274.22;;;25.86
31921;BMP280;66485;52.128;4.436;2023-07-02T12:33:38;101274.22;;;25.86
31921;BMP280;66485;52.128;4.436;2023-07-02T12:36:04;101272.34;;;25.92
31921;BMP280;66485;52.128;4.436;2023-07-02T12:38:31;101274.06;;;25.90
31921;BMP280;66485;52.128;4.436;2023-07-02T12:40:56;101274.06;;;25.90
31921;BMP280;66485;52.128;4.436;2023-07-02T12:43:21;101266.09;;;25.92
31921;BMP280;66485;52.128;4.436;2023-07-02T12:45:47;101266.09;;;25.92
31921;BMP280;66485;52.128;4.436;2023-07-02T12:48:12;101268.97;;;26.07
31921;BMP280;66485;52.128;4.436;2023-07-02T12:50:38;101286.09;;;26.02
31921;BMP280;66485;52.128;4.436;2023-07-02T12:53:04;101271.91;;;25.94
31921;BMP280;66485;52.128;4.436;2023-07-02T12:55:30;101271.91;;;25.94
31921;BMP280;66485;52.128;4.436;2023-07-02T12:57:55;101262.28;;;25.99
31921;BMP280;66485;52.128;4.436;2023-07-02T13:00:21;101262.28;;;25.99
31921;BMP280;66485;52.128;4.436;2023-07-02T13:02:46;101279.53;;;26.08
31921;BMP280;66485;52.128;4.436;2023-07-02T13:05:12;101296.59;;;26.21
31921;BMP280;66485;52.128;4.436;2023-07-02T13:07:38;101296.59;;;26.21
31921;BMP280;66485;52.128;4.436;2023-07-02T13:10:04;101276.25;;;26.28
31921;BMP280;66485;52.128;4.436;2023-07-02T13:12:29;101291.81;;;26.31
31921;BMP280;66485;52.128;4.436;2023-07-02T13:14:55;101291.81;;;26.31
31921;BMP280;66485;52.128;4.436;2023-07-02T13:17:20;101279.31;;;26.30
31921;BMP280;66485;52.128;4.436;2023-07-02T13:19:45;101282.94;;;26.36
31921;BMP280;66485;52.128;4.436;2023-07-02T13:22:14;101282.94;;;26.36
31921;BMP280;66485;52.128;4.436;2023-07-02T13:24:40;101289.34;;;26.42
31921;BMP280;66485;52.128;4.436;2023-07-02T13:27:12;101289.34;;;26.42
31921;BMP280;66485;52.128;4.436;2023-07-02T13:29:38;101306.69;;;26.48
31921;BMP280;66485;52.128;4.436;2023-07-02T13:32:04;101306.69;;;26.48
31921;BMP280;66485;52.128;4.436;2023-07-02T13:34:29;101287.78;;;26.50
31921;BMP280;66485;52.128;4.436;2023-07-02T13:36:56;101288.38;;;26.54
31921;BMP280;66485;52.128;4.436;2023-07-02T13:39:21;101282.69;;;26.58
31921;BMP280;66485;52.128;4.436;2023-07-02T13:41:47;101282.69;;;26.58
31921;BMP280;66485;52.128;4.436;2023-07-02T13:44:12;101286.06;;;26.62
31921;BMP280;66485;52.128;4.436;2023-07-02T13:46:38;101287.09;;;26.64
31921;BMP280;66485;52.128;4.436;2023-07-02T13:49:03;101294.72;;;26.69
31921;BMP280;66485;52.128;4.436;2023-07-02T13:51:28;101292.25;;;26.71
31921;BMP280;66485;52.128;4.436;2023-07-02T13:53:54;101287.50;;;26.72
31921;BMP280;66485;52.128;4.436;2023-07-02T13:56:19;101297.16;;;26.67
31921;BMP280;66485;52.128;4.436;2023-07-02T14:01:11;101285.22;;;26.70